sensor_id;sensor_type;location;lat;lon;timestamp;temperature;humidity
14769;DHT22;7476;49.404;11.152;2022-12-07T00:01:05;3.00;99.90
14769;DHT22;7476;49.404;11.152;2022-12-07T00:03:33;3.00;99.90
14769;DHT22;7476;49.404;11.152;2022-12-07T00:06:00;3.00;99.90
14769;DHT22;7476;49.404;11.152;2022-12-07T00:08:27;3.00;99.90
14769;DHT22;7476;49.404;11.152;2022-12-07T00:10:54;3.00;99.90
14769;DHT22;7476;49.404;11.152;2022-12-07T00:13:21;3.00;99.90
14769;DHT22;7476;49.404;11.152;2022-12-07T00:15:48;3.00;99.90
14769;DHT22;7476;49.404;11.152;2022-12-07T00:18:16;3.00;99.90
14769;DHT22;7476;49.404;11.152;2022-12-07T00:20:43;3.00;99.90
14769;DHT22;7476;49.404;11.152;2022-12-07T00:23:09;3.00;99.90
14769;DHT22;7476;49.404;11.152;2022-12-07T00:25:36;3.00;99.90
14769;DHT22;7476;49.404;11.152;2022-12-07T00:28:03;3.00;99.90
14769;DHT22;7476;49.404;11.152;2022-12-07T00:30:30;3.00;99.90
14769;DHT22;7476;49.404;11.152;2022-12-07T00:32:56;3.00;99.90
14769;DHT22;7476;49.404;11.152;2022-12-07T00:35:24;3.00;99.90
14769;DHT22;7476;49.404;11.152;2022-12-07T00:37:51;3.00;99.90
14769;DHT22;7476;49.404;11.152;2022-12-07T00:40:19;3.00;99.90
14769;DHT22;7476;49.404;11.152;2022-12-07T00:42:45;3.00;99.90
14769;DHT22;7476;49.404;11.152;2022-12-07T00:45:12;3.00;99.90
14769;DHT22;7476;49.404;11.152;2022-12-07T00:47:39;3.00;99.90
14769;DHT22;7476;49.404;11.152;2022-12-07T00:50:06;3.00;99.90
14769;DHT22;7476;49.404;11.152;2022-12-07T00:52:34;3.00;99.90
14769;DHT22;7476;49.404;11.152;2022-12-07T00:55:01;3.00;99.90
14769;DHT22;7476;49.404;11.152;2022-12-07T00:57:30;2.90;99.90
14769;DHT22;7476;49.404;11.152;2022-12-07T00:59:57;2.90;99.90
14769;DHT22;7476;49.404;11.152;2022-12-07T01:02:25;2.90;99.90
14769;DHT22;7476;49.404;11.152;2022-12-07T01:04:52;2.90;99.90
14769;DHT22;7476;49.404;11.152;2022-12-07T01:07:19;2.90;99.90
14769;DHT22;7476;49.404;11.152;2022-12-07T01:09:47;2.90;99.90
14769;DHT22;7476;49.404;11.152;2022-12-07T01:12:14;2.90;99.90
14769;DHT22;7476;49.404;11.152;2022-12-07T01:14:41;2.90;99.90
14769;DHT22;7476;49.404;11.152;2022-12-07T01:17:08;2.90;99.90
14769;DHT22;7476;49.404;11.152;2022-12-07T01:19:35;2.80;99.90
14769;DHT22;7476;49.404;11.152;2022-12-07T01:22:01;2.80;99.90
14769;DHT22;7476;49.404;11.152;2022-12-07T01:24:28;2.80;99.90
14769;DHT22;7476;49.404;11.152;2022-12-07T01:26:56;2.80;99.90
14769;DHT22;7476;49.404;11.152;2022-12-07T01:29:23;2.80;99.90
14769;DHT22;7476;49.404;11.152;2022-12-07T01:31:49;2.80;99.90
14769;DHT22;7476;49.404;11.152;2022-12-07T01:34:16;2.90;99.90
14769;DHT22;7476;49.404;11.152;2022-12-07T01:36:43;2.90;99.90
14769;DHT22;7476;49.404;11.152;2022-12-07T01:39:10;2.90;99.90
14769;DHT22;7476;49.404;11.152;2022-12-07T01:41:38;2.90;99.90
14769;DHT22;7476;49.404;11.152;2022-12-07T01:44:18;2.90;99.90
14769;DHT22;7476;49.404;11.152;2022-12-07T01:46:46;2.90;99.90
14769;DHT22;7476;49.404;11.152;2022-12-07T01:49:19;2.80;99.90
14769;DHT22;7476;49.404;11.152;2022-12-07T01:51:49;2.80;99.90
14769;DHT22;7476;49.404;11.152;2022-12-07T01:54:17;2.80;99.90
14769;DHT22;7476;49.404;11.152;2022-12-07T01:56:48;2.90;99.90
14769;DHT22;7476;49.404;11.152;2022-12-07T01:59:18;2.90;99.90
14769;DHT22;7476;49.404;11.152;2022-12-07T02:01:47;2.90;99.90
14769;DHT22;7476;49.404;11.152;2022-12-07T02:04:15;2.90;99.90
14769;DHT22;7476;49.404;11.152;2022-12-07T02:06:43;2.90;99.90
14769;DHT22;7476;49.404;11.152;2022-12-07T02:09:10;2.90;99.90
14769;DHT22;7476;49.404;11.152;2022-12-07T02:11:38;2.90;99.90
14769;DHT22;7476;49.404;11.152;2022-12-07T02:14:06;2.80;99.90
14769;DHT22;7476;49.404;11.152;2022-12-07T02:16:41;2.80;99.90
14769;DHT22;7476;49.404;11.152;2022-12-07T02:19:36;2.80;99.90
14769;DHT22;7476;49.404;11.152;2022-12-07T02:22:14;2.80;99.90
14769;DHT22;7476;49.404;11.152;2022-12-07T02:24:50;2.70;99.90
14769;DHT22;7476;49.404;11.152;2022-12-07T02:27:40;2.70;99.90
14769;DHT22;7476;49.404;11.152;2022-12-07T02:30:12;2.60;99.90
14769;DHT22;7476;49.404;11.152;2022-12-07T02:32:46;2.60;99.90
14769;DHT22;7476;49.404;11.152;2022-12-07T02:35:18;2.60;99.90
14769;DHT22;7476;49.404;11.152;2022-12-07T02:37:53;2.60;99.90
14769;DHT22;7476;49.404;11.152;2022-12-07T02:40:25;2.60;99.90
14769;DHT22;7476;49.404;11.152;2022-12-07T02:42:59;2.60;99.90
14769;DHT22;7476;49.404;11.152;2022-12-07T02:45:30;2.50;99.90
14769;DHT22;7476;49.404;11.152;2022-12-07T02:47:59;2.60;99.90
14769;DHT22;7476;49.404;11.152;2022-12-07T02:50:27;2.60;99.90
14769;DHT22;7476;49.404;11.152;2022-12-07T02:52:54;2.60;99.90
14769;DHT22;7476;49.404;11.152;2022-12-07T02:55:26;2.60;99.90
14769;DHT22;7476;49.404;11.152;2022-12-07T02:58:14;2.70;99.90
14769;DHT22;7476;49.404;11.152;2022-12-07T03:00:54;2.70;99.90
14769;DHT22;7476;49.404;11.152;2022-12-07T03:03:24;2.70;99.90
14769;DHT22;7476;49.404;11.152;2022-12-07T03:06:10;2.70;99.90
14769;DHT22;7476;49.404;11.152;2022-12-07T03:08:47;2.60;99.90
14769;DHT22;7476;49.404;11.152;2022-12-07T03:11:16;2.60;99.90
14769;DHT22;7476;49.404;11.152;2022-12-07T03:13:49;2.60;99.90
14769;DHT22;7476;49.404;11.152;2022-12-07T03:16:21;2.50;99.90
14769;DHT22;7476;49.404;11.152;2022-12-07T03:18:52;2.40;99.90
14769;DHT22;7476;49.404;11.152;2022-12-07T03:21:23;2.40;99.90
14769;DHT22;7476;49.404;11.152;2022-12-07T03:23:54;2.20;99.90
14769;DHT22;7476;49.404;11.152;2022-12-07T03:26:26;2.00;99.90
14769;DHT22;7476;49.404;11.152;2022-12-07T03:28:58;1.80;99.90
14769;DHT22;7476;49.404;11.152;2022-12-07T03:31:31;1.60;99.90
14769;DHT22;7476;49.404;11.152;2022-12-07T03:34:03;1.40;99.90
14769;DHT22;7476;49.404;11.152;2022-12-07T03:36:37;1.30;99.90
14769;DHT22;7476;49.404;11.152;2022-12-07T03:39:14;1.30;99.90
14769;DHT22;7476;49.404;11.152;2022-12-07T03:41:44;1.30;99.90
14769;DHT22;7476;49.404;11.152;2022-12-07T03:44:12;1.30;99.90
14769;DHT22;7476;49.404;11.152;2022-12-07T03:46:44;1.30;99.90
14769;DHT22;7476;49.404;11.152;2022-12-07T03:49:16;1.30;99.90
14769;DHT22;7476;49.404;11.152;2022-12-07T03:51:49;1.40;99.90
14769;DHT22;7476;49.404;11.152;2022-12-07T03:54:20;1.40;99.90
14769;DHT22;7476;49.404;11.152;2022-12-07T03:56:50;1.50;99.90
14769;DHT22;7476;49.404;11.152;2022-12-07T03:59:18;1.40;99.90
14769;DHT22;7476;49.404;11.152;2022-12-07T04:01:53;1.30;99.90
14769;DHT22;7476;49.404;11.152;2022-12-07T04:04:20;1.10;99.90
14769;DHT22;7476;49.404;11.152;2022-12-07T04:06:47;0.90;99.90
14769;DHT22;7476;49.404;11.152;2022-12-07T04:09:13;0.70;99.90
14769;DHT22;7476;49.404;11.152;2022-12-07T04:11:40;0.50;99.90
14769;DHT22;7476;49.404;11.152;2022-12-07T04:14:07;0.30;99.90
14769;DHT22;7476;49.404;11.152;2022-12-07T04:16:57;0.10;99.90
14769;DHT22;7476;49.404;11.152;2022-12-07T04:19:26;-0.10;99.90
14769;DHT22;7476;49.404;11.152;2022-12-07T04:21:54;-0.30;99.90
14769;DHT22;7476;49.404;11.152;2022-12-07T04:24:21;-0.50;99.90
14769;DHT22;7476;49.404;11.152;2022-12-07T04:26:47;-0.70;99.90
14769;DHT22;7476;49.404;11.152;2022-12-07T04:29:15;-0.80;99.90
14769;DHT22;7476;49.404;11.152;2022-12-07T04:31:43;-1.10;99.90
14769;DHT22;7476;49.404;11.152;2022-12-07T04:34:11;-1.10;99.90
14769;DHT22;7476;49.404;11.152;2022-12-07T04:36:38;-1.00;99.90
14769;DHT22;7476;49.404;11.152;2022-12-07T04:39:05;-0.80;99.90
14769;DHT22;7476;49.404;11.152;2022-12-07T04:41:33;-0.90;99.90
14769;DHT22;7476;49.404;11.152;2022-12-07T04:44:01;-1.10;99.90
14769;DHT22;7476;49.404;11.152;2022-12-07T04:46:30;-0.90;99.90
14769;DHT22;7476;49.404;11.152;2022-12-07T04:48:57;-0.70;99.90
14769;DHT22;7476;49.404;11.152;2022-12-07T04:51:27;-0.70;99.90
14769;DHT22;7476;49.404;11.152;2022-12-07T04:53:55;-0.60;99.90
14769;DHT22;7476;49.404;11.152;2022-12-07T04:56:23;-0.60;99.90
14769;DHT22;7476;49.404;11.152;2022-12-07T04:58:51;-0.50;99.90
14769;DHT22;7476;49.404;11.152;2022-12-07T05:01:19;-0.40;99.90
14769;DHT22;7476;49.404;11.152;2022-12-07T05:03:45;-0.30;99.90
14769;DHT22;7476;49.404;11.152;2022-12-07T05:06:13;-0.30;99.90
14769;DHT22;7476;49.404;11.152;2022-12-07T05:08:42;-0.20;99.90
14769;DHT22;7476;49.404;11.152;2022-12-07T05:11:10;0.00;99.90
14769;DHT22;7476;49.404;11.152;2022-12-07T05:13:58;0.10;99.90
14769;DHT22;7476;49.404;11.152;2022-12-07T05:16:25;0.30;99.90
14769;DHT22;7476;49.404;11.152;2022-12-07T05:18:52;0.50;99.90
14769;DHT22;7476;49.404;11.152;2022-12-07T05:21:19;0.70;99.90
14769;DHT22;7476;49.404;11.152;2022-12-07T05:23:47;0.80;99.90
14769;DHT22;7476;49.404;11.152;2022-12-07T05:26:13;0.90;99.90
14769;DHT22;7476;49.404;11.152;2022-12-07T05:28:40;0.90;99.90
14769;DHT22;7476;49.404;11.152;2022-12-07T05:31:07;0.90;99.90
14769;DHT22;7476;49.404;11.152;2022-12-07T05:33:34;0.90;99.90
14769;DHT22;7476;49.404;11.152;2022-12-07T05:36:01;0.90;99.90
14769;DHT22;7476;49.404;11.152;2022-12-07T05:38:31;0.90;99.90
14769;DHT22;7476;49.404;11.152;2022-12-07T05:41:01;0.90;99.90
14769;DHT22;7476;49.404;11.152;2022-12-07T05:43:28;1.00;99.90
14769;DHT22;7476;49.404;11.152;2022-12-07T05:45:55;1.00;99.90
14769;DHT22;7476;49.404;11.152;2022-12-07T05:48:22;1.00;99.90
14769;DHT22;7476;49.404;11.152;2022-12-07T05:50:49;1.10;99.90
14769;DHT22;7476;49.404;11.152;2022-12-07T05:53:16;1.20;99.90
14769;DHT22;7476;49.404;11.152;2022-12-07T05:55:43;1.20;99.90
14769;DHT22;7476;49.404;11.152;2022-12-07T05:58:11;1.30;99.90
14769;DHT22;7476;49.404;11.152;2022-12-07T06:00:56;1.30;99.90
14769;DHT22;7476;49.404;11.152;2022-12-07T06:03:23;1.30;99.90
14769;DHT22;7476;49.404;11.152;2022-12-07T06:05:50;1.30;99.90
14769;DHT22;7476;49.404;11.152;2022-12-07T06:08:18;1.30;99.90
14769;DHT22;7476;49.404;11.152;2022-12-07T06:10:46;1.30;99.90
14769;DHT22;7476;49.404;11.152;2022-12-07T06:13:35;1.30;99.90
14769;DHT22;7476;49.404;11.152;2022-12-07T06:16:01;1.20;99.90
14769;DHT22;7476;49.404;11.152;2022-12-07T06:18:28;1.30;99.90
14769;DHT22;7476;49.404;11.152;2022-12-07T06:20:54;1.30;99.90
14769;DHT22;7476;49.404;11.152;2022-12-07T06:23:21;1.30;99.90
14769;DHT22;7476;49.404;11.152;2022-12-07T06:25:48;1.30;99.90
14769;DHT22;7476;49.404;11.152;2022-12-07T06:28:14;1.30;99.90
14769;DHT22;7476;49.404;11.152;2022-12-07T06:30:42;1.30;99.90
14769;DHT22;7476;49.404;11.152;2022-12-07T06:33:09;1.30;99.90
14769;DHT22;7476;49.404;11.152;2022-12-07T06:35:36;1.30;99.90
14769;DHT22;7476;49.404;11.152;2022-12-07T06:38:03;1.30;99.90
14769;DHT22;7476;49.404;11.152;2022-12-07T06:40:30;1.30;99.90
14769;DHT22;7476;49.404;11.152;2022-12-07T06:42:56;1.20;99.90
14769;DHT22;7476;49.404;11.152;2022-12-07T06:45:23;1.30;99.90
14769;DHT22;7476;49.404;11.152;2022-12-07T06:47:51;1.20;99.90
14769;DHT22;7476;49.404;11.152;2022-12-07T06:50:18;1.20;99.90
14769;DHT22;7476;49.404;11.152;2022-12-07T06:52:44;1.30;99.90
14769;DHT22;7476;49.404;11.152;2022-12-07T06:55:11;1.30;99.90
14769;DHT22;7476;49.404;11.152;2022-12-07T06:57:38;1.30;99.90
14769;DHT22;7476;49.404;11.152;2022-12-07T07:00:06;1.30;99.90
14769;DHT22;7476;49.404;11.152;2022-12-07T07:02:32;1.30;99.90
14769;DHT22;7476;49.404;11.152;2022-12-07T07:05:00;1.30;99.90
14769;DHT22;7476;49.404;11.152;2022-12-07T07:07:27;1.40;99.90
14769;DHT22;7476;49.404;11.152;2022-12-07T07:09:54;1.40;99.90
14769;DHT22;7476;49.404;11.152;2022-12-07T07:12:21;1.40;99.90
14769;DHT22;7476;49.404;11.152;2022-12-07T07:14:47;1.40;99.90
14769;DHT22;7476;49.404;11.152;2022-12-07T07:17:14;1.40;99.90
14769;DHT22;7476;49.404;11.152;2022-12-07T07:19:41;1.40;99.90
14769;DHT22;7476;49.404;11.152;2022-12-07T07:22:09;1.40;99.90
14769;DHT22;7476;49.404;11.152;2022-12-07T07:24:36;1.50;99.90
14769;DHT22;7476;49.404;11.152;2022-12-07T07:27:03;1.50;99.90
14769;DHT22;7476;49.404;11.152;2022-12-07T07:29:29;1.50;99.90
14769;DHT22;7476;49.404;11.152;2022-12-07T07:31:56;1.60;99.90
14769;DHT22;7476;49.404;11.152;2022-12-07T07:34:23;1.60;99.90
14769;DHT22;7476;49.404;11.152;2022-12-07T07:36:49;1.60;99.90
14769;DHT22;7476;49.404;11.152;2022-12-07T07:39:17;1.70;99.90
14769;DHT22;7476;49.404;11.152;2022-12-07T07:41:44;1.70;99.90
14769;DHT22;7476;49.404;11.152;2022-12-07T07:44:11;1.70;99.90
14769;DHT22;7476;49.404;11.152;2022-12-07T07:46:38;1.80;99.90
14769;DHT22;7476;49.404;11.152;2022-12-07T07:49:04;1.80;99.90
14769;DHT22;7476;49.404;11.152;2022-12-07T07:51:31;1.80;99.90
14769;DHT22;7476;49.404;11.152;2022-12-07T07:53:58;1.80;99.90
14769;DHT22;7476;49.404;11.152;2022-12-07T07:56:26;1.90;99.90
14769;DHT22;7476;49.404;11.152;2022-12-07T07:58:53;1.90;99.90
14769;DHT22;7476;49.404;11.152;2022-12-07T08:01:19;2.00;99.90
14769;DHT22;7476;49.404;11.152;2022-12-07T08:03:46;2.00;99.90
14769;DHT22;7476;49.404;11.152;2022-12-07T08:06:13;2.00;99.90
14769;DHT22;7476;49.404;11.152;2022-12-07T08:08:40;2.10;99.90
14769;DHT22;7476;49.404;11.152;2022-12-07T08:11:07;2.20;99.90
14769;DHT22;7476;49.404;11.152;2022-12-07T08:13:36;2.20;99.90
14769;DHT22;7476;49.404;11.152;2022-12-07T08:16:04;2.30;99.90
14769;DHT22;7476;49.404;11.152;2022-12-07T08:18:31;2.30;99.90
14769;DHT22;7476;49.404;11.152;2022-12-07T08:21:01;2.40;99.90
14769;DHT22;7476;49.404;11.152;2022-12-07T08:23:28;2.40;99.90
14769;DHT22;7476;49.404;11.152;2022-12-07T08:25:55;2.50;99.90
14769;DHT22;7476;49.404;11.152;2022-12-07T08:28:22;2.50;99.90
14769;DHT22;7476;49.404;11.152;2022-12-07T08:30:50;2.60;99.90
14769;DHT22;7476;49.404;11.152;2022-12-07T08:33:17;2.70;99.90
14769;DHT22;7476;49.404;11.152;2022-12-07T08:35:43;2.70;99.90
14769;DHT22;7476;49.404;11.152;2022-12-07T08:38:10;2.80;99.90
14769;DHT22;7476;49.404;11.152;2022-12-07T08:40:37;2.80;99.90
14769;DHT22;7476;49.404;11.152;2022-12-07T08:43:04;2.90;99.90
14769;DHT22;7476;49.404;11.152;2022-12-07T08:45:31;2.90;99.90
14769;DHT22;7476;49.404;11.152;2022-12-07T08:48:06;3.00;99.90
14769;DHT22;7476;49.404;11.152;2022-12-07T08:50:34;3.10;99.90
14769;DHT22;7476;49.404;11.152;2022-12-07T08:53:02;3.20;99.90
14769;DHT22;7476;49.404;11.152;2022-12-07T08:55:31;3.20;99.90
14769;DHT22;7476;49.404;11.152;2022-12-07T08:58:00;3.30;99.90
14769;DHT22;7476;49.404;11.152;2022-12-07T09:00:27;3.40;99.90
14769;DHT22;7476;49.404;11.152;2022-12-07T09:02:54;3.60;99.90
14769;DHT22;7476;49.404;11.152;2022-12-07T09:05:22;3.60;99.90
14769;DHT22;7476;49.404;11.152;2022-12-07T09:07:51;3.60;99.90
14769;DHT22;7476;49.404;11.152;2022-12-07T09:10:19;3.60;99.90
14769;DHT22;7476;49.404;11.152;2022-12-07T09:12:46;3.70;99.90
14769;DHT22;7476;49.404;11.152;2022-12-07T09:15:12;3.70;99.90
14769;DHT22;7476;49.404;11.152;2022-12-07T09:17:39;3.60;99.90
14769;DHT22;7476;49.404;11.152;2022-12-07T09:20:06;3.60;99.90
14769;DHT22;7476;49.404;11.152;2022-12-07T09:22:35;3.60;99.90
14769;DHT22;7476;49.404;11.152;2022-12-07T09:25:02;3.50;99.90
14769;DHT22;7476;49.404;11.152;2022-12-07T09:27:29;3.60;99.90
14769;DHT22;7476;49.404;11.152;2022-12-07T09:29:56;3.60;99.90
14769;DHT22;7476;49.404;11.152;2022-12-07T09:32:23;3.50;99.90
14769;DHT22;7476;49.404;11.152;2022-12-07T09:34:50;3.50;99.90
14769;DHT22;7476;49.404;11.152;2022-12-07T09:37:16;3.40;99.90
14769;DHT22;7476;49.404;11.152;2022-12-07T09:39:47;3.30;99.90
14769;DHT22;7476;49.404;11.152;2022-12-07T09:42:27;3.20;99.90
14769;DHT22;7476;49.404;11.152;2022-12-07T09:44:55;3.10;99.90
14769;DHT22;7476;49.404;11.152;2022-12-07T09:47:23;3.10;99.90
14769;DHT22;7476;49.404;11.152;2022-12-07T09:49:50;3.20;99.90
14769;DHT22;7476;49.404;11.152;2022-12-07T09:52:19;3.20;99.90
14769;DHT22;7476;49.404;11.152;2022-12-07T09:54:50;3.20;99.90
14769;DHT22;7476;49.404;11.152;2022-12-07T09:57:17;3.20;99.90
14769;DHT22;7476;49.404;11.152;2022-12-07T09:59:47;3.20;99.90
14769;DHT22;7476;49.404;11.152;2022-12-07T10:02:25;3.20;99.90
14769;DHT22;7476;49.404;11.152;2022-12-07T10:04:52;3.20;99.90
14769;DHT22;7476;49.404;11.152;2022-12-07T10:07:19;3.20;99.90
14769;DHT22;7476;49.404;11.152;2022-12-07T10:09:46;3.20;99.90
14769;DHT22;7476;49.404;11.152;2022-12-07T10:12:15;3.20;99.90
14769;DHT22;7476;49.404;11.152;2022-12-07T10:14:55;3.20;99.90
14769;DHT22;7476;49.404;11.152;2022-12-07T10:17:34;3.20;99.90
14769;DHT22;7476;49.404;11.152;2022-12-07T10:20:20;3.20;99.90
14769;DHT22;7476;49.404;11.152;2022-12-07T10:22:59;3.20;99.90
14769;DHT22;7476;49.404;11.152;2022-12-07T10:25:28;3.20;99.90
14769;DHT22;7476;49.404;11.152;2022-12-07T10:28:00;3.20;99.90
14769;DHT22;7476;49.404;11.152;2022-12-07T10:30:28;3.30;99.90
14769;DHT22;7476;49.404;11.152;2022-12-07T10:32:56;3.40;99.90
14769;DHT22;7476;49.404;11.152;2022-12-07T10:35:25;3.50;99.90
14769;DHT22;7476;49.404;11.152;2022-12-07T10:37:53;3.50;99.90
14769;DHT22;7476;49.404;11.152;2022-12-07T10:40:27;3.60;99.90
14769;DHT22;7476;49.404;11.152;2022-12-07T10:43:03;3.60;99.90
14769;DHT22;7476;49.404;11.152;2022-12-07T10:45:30;3.60;99.90
14769;DHT22;7476;49.404;11.152;2022-12-07T10:48:04;3.70;99.90
14769;DHT22;7476;49.404;11.152;2022-12-07T10:50:52;3.70;99.90
14769;DHT22;7476;49.404;11.152;2022-12-07T10:53:38;3.70;99.90
14769;DHT22;7476;49.404;11.152;2022-12-07T10:56:20;3.80;99.90
14769;DHT22;7476;49.404;11.152;2022-12-07T10:59:04;3.90;99.90
14769;DHT22;7476;49.404;11.152;2022-12-07T11:01:41;3.90;99.90
14769;DHT22;7476;49.404;11.152;2022-12-07T11:04:20;4.00;99.90
14769;DHT22;7476;49.404;11.152;2022-12-07T11:06:54;4.00;99.90
14769;DHT22;7476;49.404;11.152;2022-12-07T11:09:42;4.00;99.90
14769;DHT22;7476;49.404;11.152;2022-12-07T11:12:17;4.00;99.90
14769;DHT22;7476;49.404;11.152;2022-12-07T11:14:54;4.10;99.90
14769;DHT22;7476;49.404;11.152;2022-12-07T11:17:28;4.10;99.90
14769;DHT22;7476;49.404;11.152;2022-12-07T11:20:04;4.10;99.90
14769;DHT22;7476;49.404;11.152;2022-12-07T11:22:45;4.10;99.90
14769;DHT22;7476;49.404;11.152;2022-12-07T11:25:22;4.10;99.90
14769;DHT22;7476;49.404;11.152;2022-12-07T11:28:01;4.10;99.90
14769;DHT22;7476;49.404;11.152;2022-12-07T11:30:34;4.20;99.90
14769;DHT22;7476;49.404;11.152;2022-12-07T11:33:11;4.20;99.90
14769;DHT22;7476;49.404;11.152;2022-12-07T11:35:50;4.20;99.90
14769;DHT22;7476;49.404;11.152;2022-12-07T11:38:21;4.10;99.90
14769;DHT22;7476;49.404;11.152;2022-12-07T11:40:49;4.10;99.90
14769;DHT22;7476;49.404;11.152;2022-12-07T11:43:22;4.20;99.90
14769;DHT22;7476;49.404;11.152;2022-12-07T11:45:59;4.30;99.90
14769;DHT22;7476;49.404;11.152;2022-12-07T11:48:33;4.30;99.90
14769;DHT22;7476;49.404;11.152;2022-12-07T11:51:01;4.30;99.90
14769;DHT22;7476;49.404;11.152;2022-12-07T11:53:33;4.30;99.90
14769;DHT22;7476;49.404;11.152;2022-12-07T11:56:05;4.40;99.90
14769;DHT22;7476;49.404;11.152;2022-12-07T11:58:47;4.40;99.90
14769;DHT22;7476;49.404;11.152;2022-12-07T12:01:26;4.50;99.90
14769;DHT22;7476;49.404;11.152;2022-12-07T12:03:58;4.60;99.90
14769;DHT22;7476;49.404;11.152;2022-12-07T12:06:27;4.60;99.90
14769;DHT22;7476;49.404;11.152;2022-12-07T12:08:55;4.60;99.90
14769;DHT22;7476;49.404;11.152;2022-12-07T12:11:39;4.50;99.90
14769;DHT22;7476;49.404;11.152;2022-12-07T12:14:21;4.40;99.90
14769;DHT22;7476;49.404;11.152;2022-12-07T12:17:12;4.30;99.90
14769;DHT22;7476;49.404;11.152;2022-12-07T12:19:45;4.30;99.90
14769;DHT22;7476;49.404;11.152;2022-12-07T12:22:28;4.30;99.90
14769;DHT22;7476;49.404;11.152;2022-12-07T12:24:57;4.30;99.90
14769;DHT22;7476;49.404;11.152;2022-12-07T12:27:26;4.40;99.90
14769;DHT22;7476;49.404;11.152;2022-12-07T12:29:57;4.40;99.90
14769;DHT22;7476;49.404;11.152;2022-12-07T12:32:34;4.50;99.90
14769;DHT22;7476;49.404;11.152;2022-12-07T12:35:22;4.50;99.90
14769;DHT22;7476;49.404;11.152;2022-12-07T12:37:54;4.50;99.90
14769;DHT22;7476;49.404;11.152;2022-12-07T12:40:51;4.50;99.90
14769;DHT22;7476;49.404;11.152;2022-12-07T12:43:47;4.50;99.90
14769;DHT22;7476;49.404;11.152;2022-12-07T12:46:51;4.50;99.90
14769;DHT22;7476;49.404;11.152;2022-12-07T12:49:54;4.50;99.90
14769;DHT22;7476;49.404;11.152;2022-12-07T12:52:54;4.50;99.90
14769;DHT22;7476;49.404;11.152;2022-12-07T12:55:52;4.50;99.90
14769;DHT22;7476;49.404;11.152;2022-12-07T12:58:34;4.40;99.90
14769;DHT22;7476;49.404;11.152;2022-12-07T13:04:40;4.40;99.90
14769;DHT22;7476;49.404;11.152;2022-12-07T13:07:49;4.40;99.90
14769;DHT22;7476;49.404;11.152;2022-12-07T13:10:40;4.40;99.90
14769;DHT22;7476;49.404;11.152;2022-12-07T13:13:31;4.40;99.90
14769;DHT22;7476;49.404;11.152;2022-12-07T13:16:40;4.40;99.90
14769;DHT22;7476;49.404;11.152;2022-12-07T13:22:51;4.40;99.90
14769;DHT22;7476;49.404;11.152;2022-12-07T13:25:31;4.40;99.90
14769;DHT22;7476;49.404;11.152;2022-12-07T13:28:02;4.30;99.90
14769;DHT22;7476;49.404;11.152;2022-12-07T13:30:43;4.30;99.90
14769;DHT22;7476;49.404;11.152;2022-12-07T13:33:11;4.30;99.90
14769;DHT22;7476;49.404;11.152;2022-12-07T13:35:39;4.30;99.90
14769;DHT22;7476;49.404;11.152;2022-12-07T13:38:21;4.30;99.90
14769;DHT22;7476;49.404;11.152;2022-12-07T13:41:03;4.30;99.90
14769;DHT22;7476;49.404;11.152;2022-12-07T13:43:30;4.30;99.90
14769;DHT22;7476;49.404;11.152;2022-12-07T13:45:57;4.30;99.90
14769;DHT22;7476;49.404;11.152;2022-12-07T13:48:30;4.20;99.90
14769;DHT22;7476;49.404;11.152;2022-12-07T13:50:58;4.10;99.90
14769;DHT22;7476;49.404;11.152;2022-12-07T13:53:27;4.10;99.90
14769;DHT22;7476;49.404;11.152;2022-12-07T13:55:56;4.00;99.90
14769;DHT22;7476;49.404;11.152;2022-12-07T13:58:24;3.90;99.90
14769;DHT22;7476;49.404;11.152;2022-12-07T14:00:51;3.90;99.90
14769;DHT22;7476;49.404;11.152;2022-12-07T14:03:30;3.80;99.90
14769;DHT22;7476;49.404;11.152;2022-12-07T14:06:06;3.80;99.90
14769;DHT22;7476;49.404;11.152;2022-12-07T14:08:34;3.70;99.90
14769;DHT22;7476;49.404;11.152;2022-12-07T14:11:01;3.70;99.90
14769;DHT22;7476;49.404;11.152;2022-12-07T14:13:31;3.70;99.90
14769;DHT22;7476;49.404;11.152;2022-12-07T14:15:59;3.70;99.90
14769;DHT22;7476;49.404;11.152;2022-12-07T14:18:28;3.70;99.90
14769;DHT22;7476;49.404;11.152;2022-12-07T14:21:05;3.70;99.90
14769;DHT22;7476;49.404;11.152;2022-12-07T14:23:34;3.70;99.90
14769;DHT22;7476;49.404;11.152;2022-12-07T14:26:07;3.70;99.90
14769;DHT22;7476;49.404;11.152;2022-12-07T14:28:35;3.70;99.90
14769;DHT22;7476;49.404;11.152;2022-12-07T14:31:03;3.70;99.90
14769;DHT22;7476;49.404;11.152;2022-12-07T14:33:34;3.60;99.90
14769;DHT22;7476;49.404;11.152;2022-12-07T14:36:01;3.60;99.90
14769;DHT22;7476;49.404;11.152;2022-12-07T14:38:28;3.60;99.90
14769;DHT22;7476;49.404;11.152;2022-12-07T14:40:56;3.60;99.90
14769;DHT22;7476;49.404;11.152;2022-12-07T14:43:44;3.60;99.90
14769;DHT22;7476;49.404;11.152;2022-12-07T14:46:11;3.60;99.90
14769;DHT22;7476;49.404;11.152;2022-12-07T14:48:37;3.60;99.90
14769;DHT22;7476;49.404;11.152;2022-12-07T14:51:05;3.60;99.90
14769;DHT22;7476;49.404;11.152;2022-12-07T14:53:34;3.60;99.90
14769;DHT22;7476;49.404;11.152;2022-12-07T14:56:03;3.60;99.90
14769;DHT22;7476;49.404;11.152;2022-12-07T14:58:31;3.60;99.90
14769;DHT22;7476;49.404;11.152;2022-12-07T15:00:59;3.60;99.90
14769;DHT22;7476;49.404;11.152;2022-12-07T15:03:26;3.60;99.90
14769;DHT22;7476;49.404;11.152;2022-12-07T15:05:53;3.60;99.90
14769;DHT22;7476;49.404;11.152;2022-12-07T15:08:19;3.60;99.90
14769;DHT22;7476;49.404;11.152;2022-12-07T15:10:46;3.60;99.90
14769;DHT22;7476;49.404;11.152;2022-12-07T15:13:14;3.60;99.90
14769;DHT22;7476;49.404;11.152;2022-12-07T15:16:07;3.60;99.90
14769;DHT22;7476;49.404;11.152;2022-12-07T15:18:34;3.60;99.90
14769;DHT22;7476;49.404;11.152;2022-12-07T15:21:01;3.60;99.90
14769;DHT22;7476;49.404;11.152;2022-12-07T15:23:29;3.60;99.90
14769;DHT22;7476;49.404;11.152;2022-12-07T15:25:56;3.60;99.90
14769;DHT22;7476;49.404;11.152;2022-12-07T15:28:24;3.60;99.90
14769;DHT22;7476;49.404;11.152;2022-12-07T15:30:51;3.60;99.90
14769;DHT22;7476;49.404;11.152;2022-12-07T15:33:18;3.50;99.90
14769;DHT22;7476;49.404;11.152;2022-12-07T15:35:45;3.50;99.90
14769;DHT22;7476;49.404;11.152;2022-12-07T15:38:11;3.50;99.90
14769;DHT22;7476;49.404;11.152;2022-12-07T15:40:38;3.50;99.90
14769;DHT22;7476;49.404;11.152;2022-12-07T15:43:05;3.50;99.90
14769;DHT22;7476;49.404;11.152;2022-12-07T15:45:53;3.50;99.90
14769;DHT22;7476;49.404;11.152;2022-12-07T15:48:19;3.50;99.90
14769;DHT22;7476;49.404;11.152;2022-12-07T15:50:46;3.50;99.90
14769;DHT22;7476;49.404;11.152;2022-12-07T15:53:13;3.50;99.90
14769;DHT22;7476;49.404;11.152;2022-12-07T15:55:40;3.50;99.90
14769;DHT22;7476;49.404;11.152;2022-12-07T15:58:06;3.50;99.90
14769;DHT22;7476;49.404;11.152;2022-12-07T16:00:33;3.50;99.90
14769;DHT22;7476;49.404;11.152;2022-12-07T16:03:01;3.50;99.90
14769;DHT22;7476;49.404;11.152;2022-12-07T16:05:28;3.40;99.90
14769;DHT22;7476;49.404;11.152;2022-12-07T16:07:55;3.40;99.90
14769;DHT22;7476;49.404;11.152;2022-12-07T16:10:21;3.40;99.90
14769;DHT22;7476;49.404;11.152;2022-12-07T16:12:48;3.40;99.90
14769;DHT22;7476;49.404;11.152;2022-12-07T16:15:15;3.40;99.90